createdAt,value
2022-11-25T00:03:55.029Z,5.95
2022-11-25T00:08:57.985Z,5.35
2022-11-25T00:13:59.442Z,5.40
2022-11-25T00:19:00.899Z,6.05
2022-11-25T00:24:06.437Z,5.72
2022-11-25T00:29:08.269Z,5.90
2022-11-25T00:34:13.517Z,5.32
2022-11-25T00:39:16.371Z,5.55
2022-11-25T00:44:37.704Z,5.65
2022-11-25T00:49:40.978Z,6.63
2022-11-25T00:54:42.684Z,5.90
2022-11-25T00:59:44.144Z,4.80
2022-11-25T01:04:46.054Z,5.15
2022-11-25T01:09:47.620Z,4.47
2022-11-25T01:14:49.068Z,4.95
2022-11-25T01:19:50.540Z,5.22
2022-11-25T01:24:52.003Z,4.70
2022-11-25T01:29:53.458Z,4.93
2022-11-25T01:34:54.936Z,5.45
2022-11-25T01:39:56.403Z,5.72
2022-11-25T01:45:24.614Z,5.32
2022-11-25T01:50:29.397Z,6.22
2022-11-25T01:55:30.984Z,6.35
2022-11-25T02:00:32.530Z,7.82
2022-11-25T02:05:52.139Z,6.22
2022-11-25T02:10:54.293Z,6.15
2022-11-25T02:15:55.742Z,6.40
2022-11-25T02:20:57.194Z,7.22
2022-11-25T02:25:58.686Z,6.85
2022-11-25T02:31:00.147Z,8.40
2022-11-25T02:36:03.106Z,7.90
2022-11-25T02:41:25.125Z,6.72
2022-11-25T02:51:29.514Z,5.68
2022-11-25T03:06:34.906Z,7.85
2022-11-25T03:11:54.745Z,6.68
2022-11-25T03:16:56.301Z,6.05
2022-11-25T03:21:57.829Z,6.43
2022-11-25T03:26:59.394Z,5.80
2022-11-25T03:32:04.195Z,5.18
2022-11-25T03:37:08.417Z,5.22
2022-11-25T03:42:09.919Z,5.47
2022-11-25T03:47:11.387Z,6.95
2022-11-25T03:52:12.845Z,5.40
2022-11-25T03:57:14.335Z,5.55
2022-11-25T04:02:15.840Z,4.90
2022-11-25T04:07:17.490Z,4.85
2022-11-25T04:12:37.328Z,5.22
2022-11-25T04:17:38.790Z,4.68
2022-11-25T04:22:40.391Z,5.05
2022-11-25T04:27:41.853Z,4.95
2022-11-25T04:32:43.309Z,4.95
2022-11-25T04:37:44.755Z,3.80
2022-11-25T04:42:46.212Z,4.15
2022-11-25T04:47:47.672Z,5.45
2022-11-25T04:52:49.118Z,4.28
2022-11-25T04:57:50.568Z,4.50
2022-11-25T05:02:52.074Z,4.78
2022-11-25T05:07:53.603Z,4.90
2022-11-25T05:12:55.096Z,4.70
2022-11-25T05:17:56.538Z,4.22
2022-11-25T05:22:58.016Z,4.70
2022-11-25T05:28:00.293Z,5.05
2022-11-25T05:33:01.748Z,4.10
2022-11-25T05:38:04.240Z,3.95
2022-11-25T05:43:05.690Z,6.07
2022-11-25T05:48:08.300Z,4.03
2022-11-25T05:53:09.797Z,3.90
2022-11-25T05:58:11.246Z,4.43
2022-11-25T06:03:12.797Z,4.93
2022-11-25T06:08:14.364Z,5.35
2022-11-25T06:13:15.829Z,5.00
2022-11-25T06:18:17.383Z,4.53
2022-11-25T06:23:18.867Z,4.63
2022-11-25T06:28:20.323Z,4.82
2022-11-25T06:33:21.788Z,4.35
2022-11-25T06:38:23.255Z,4.10
2022-11-25T06:43:24.711Z,4.70
2022-11-25T06:48:26.178Z,4.53
2022-11-25T06:53:27.715Z,4.35
2022-11-25T06:58:35.920Z,4.30
2022-11-25T07:03:37.766Z,4.25
2022-11-25T07:08:39.314Z,4.47
2022-11-25T07:13:40.774Z,5.50
2022-11-25T07:18:42.254Z,4.32
2022-11-25T07:23:44.160Z,4.22
2022-11-25T07:28:45.704Z,4.35
2022-11-25T07:33:47.235Z,4.38
2022-11-25T07:38:48.810Z,4.63
2022-11-25T07:43:52.489Z,4.60
2022-11-25T07:48:54.983Z,4.82
2022-11-25T07:53:56.846Z,5.18
2022-11-25T07:58:58.304Z,6.25
2022-11-25T08:03:59.772Z,5.60
2022-11-25T08:09:01.220Z,6.40
2022-11-25T08:14:02.841Z,5.57
2022-11-25T08:19:07.093Z,6.13
2022-11-25T08:24:10.123Z,7.00
2022-11-25T08:29:13.773Z,6.03
2022-11-25T08:34:33.346Z,6.50
2022-11-25T08:44:56.301Z,6.60
2022-11-25T08:49:57.907Z,6.35
2022-11-25T08:54:59.359Z,6.50
2022-11-25T09:00:00.824Z,6.07
2022-11-25T09:05:02.298Z,6.72
2022-11-25T09:10:04.085Z,5.70
2022-11-25T09:15:05.976Z,5.13
2022-11-25T09:20:07.742Z,4.75
2022-11-25T09:25:09.309Z,5.63
2022-11-25T09:30:11.155Z,4.57
2022-11-25T09:35:12.611Z,4.25
2022-11-25T09:40:47.859Z,4.95
2022-11-25T09:46:23.831Z,4.30
2022-11-25T09:51:32.252Z,5.18
2022-11-25T09:56:42.922Z,4.60
2022-11-25T10:01:50.122Z,6.70
2022-11-25T10:06:57.051Z,4.40
2022-11-25T10:12:03.309Z,6.07
2022-11-25T10:17:10.409Z,5.13
2022-11-25T10:22:21.028Z,6.25
2022-11-25T10:27:46.604Z,6.07
2022-11-25T10:32:59.321Z,6.38
2022-11-25T10:43:14.272Z,7.32
2022-11-25T10:48:44.035Z,6.63
2022-11-25T10:54:11.384Z,6.93
2022-11-25T10:59:22.200Z,6.85
2022-11-25T11:04:23.652Z,6.22
2022-11-25T11:09:38.855Z,6.22
2022-11-25T11:14:40.355Z,5.78
2022-11-25T11:19:41.813Z,5.88
2022-11-25T11:24:43.278Z,6.45
2022-11-25T11:29:44.744Z,5.82
2022-11-25T11:35:06.774Z,6.35
2022-11-25T11:45:53.964Z,5.88
2022-11-25T11:51:13.751Z,6.65
2022-11-25T11:56:36.692Z,6.75
2022-11-25T12:02:00.464Z,6.32
2022-11-25T12:07:15.919Z,5.38
2022-11-25T12:12:19.150Z,5.60
2022-11-25T12:17:27.496Z,5.25
2022-11-25T12:22:34.753Z,4.63
2022-11-25T12:27:47.783Z,4.55
2022-11-25T12:33:06.561Z,4.30
2022-11-25T12:38:29.855Z,3.45
2022-11-25T12:43:42.940Z,3.08
2022-11-25T12:48:44.460Z,3.35
2022-11-25T12:54:19.734Z,2.55
2022-11-25T12:59:33.414Z,3.47
2022-11-25T13:10:54.992Z,3.00
2022-11-25T13:15:57.292Z,2.47
2022-11-25T13:21:08.899Z,3.85
2022-11-25T13:26:28.477Z,3.08
2022-11-25T13:32:01.666Z,2.95
2022-11-25T13:37:33.473Z,2.72
2022-11-25T13:42:43.340Z,2.90
2022-11-25T13:47:48.391Z,2.90
2022-11-25T13:52:59.445Z,3.20
2022-11-25T13:58:02.233Z,2.83
2022-11-25T14:03:18.954Z,3.42
2022-11-25T14:08:26.343Z,4.45
2022-11-25T14:14:01.049Z,2.75
2022-11-25T14:19:51.678Z,3.08
2022-11-25T14:24:55.467Z,2.67
2022-11-25T14:30:04.983Z,2.65
2022-11-25T14:35:45.768Z,2.80
2022-11-25T14:40:54.633Z,3.08
2022-11-25T14:46:12.934Z,2.90
2022-11-25T14:51:14.520Z,2.80
2022-11-25T14:56:23.428Z,2.55
2022-11-25T15:01:32.529Z,2.42
2022-11-25T15:06:38.809Z,2.75
2022-11-25T15:11:40.280Z,3.88
2022-11-25T15:16:43.331Z,2.22
2022-11-25T15:22:14.900Z,3.47
2022-11-25T15:27:25.888Z,3.03
2022-11-25T15:32:31.218Z,2.30
2022-11-25T15:37:32.789Z,2.92
2022-11-25T15:42:34.275Z,2.38
2022-11-25T15:47:35.736Z,2.63
2022-11-25T15:52:38.027Z,3.30
2022-11-25T15:57:40.130Z,2.35
2022-11-25T16:02:41.521Z,2.80
2022-11-25T16:07:52.344Z,3.08
2022-11-25T16:13:20.889Z,2.58
2022-11-25T16:18:39.771Z,2.60
2022-11-25T16:23:44.618Z,2.03
2022-11-25T16:28:56.433Z,2.85
2022-11-25T16:34:11.748Z,2.20
2022-11-25T16:39:13.234Z,3.78
2022-11-25T16:44:19.076Z,2.63
2022-11-25T16:49:21.126Z,2.15
2022-11-25T16:54:22.846Z,1.95
2022-11-25T16:59:29.948Z,2.15
2022-11-25T17:04:31.404Z,2.03
2022-11-25T17:09:32.850Z,2.83
2022-11-25T17:14:34.708Z,3.25
2022-11-25T17:19:36.540Z,2.22
2022-11-25T17:24:38.398Z,3.40
2022-11-25T17:29:41.558Z,2.60
2022-11-25T17:34:43.364Z,3.15
2022-11-25T17:39:44.833Z,2.92
2022-11-25T17:44:51.274Z,2.05
2022-11-25T17:49:54.531Z,2.10
2022-11-25T17:54:56.117Z,2.00
2022-11-25T17:59:57.632Z,3.13
2022-11-25T18:04:59.087Z,3.03
2022-11-25T18:10:00.548Z,2.20
2022-11-25T18:15:07.887Z,3.08
2022-11-25T18:20:16.820Z,2.67
2022-11-25T18:25:26.079Z,2.22
2022-11-25T18:30:28.840Z,2.08
2022-11-25T18:35:36.121Z,2.42
2022-11-25T18:40:40.263Z,2.45
2022-11-25T18:45:41.798Z,2.58
2022-11-25T18:50:43.571Z,2.88
2022-11-25T18:55:45.028Z,3.38
2022-11-25T19:00:50.157Z,2.05
2022-11-25T19:05:54.081Z,2.38
2022-11-25T19:10:55.661Z,2.17
2022-11-25T19:16:00.168Z,2.33
2022-11-25T19:21:02.115Z,2.10
2022-11-25T19:26:07.604Z,2.08
2022-11-25T19:31:09.135Z,2.60
2022-11-25T19:36:16.982Z,3.17
2022-11-25T19:41:18.528Z,2.20
2022-11-25T19:46:40.949Z,3.20
2022-11-25T19:51:51.840Z,2.00
2022-11-25T19:56:53.639Z,2.72
2022-11-25T20:01:55.482Z,2.10
2022-11-25T20:06:57.049Z,2.85
2022-11-25T20:12:08.062Z,1.90
2022-11-25T20:17:12.908Z,2.53
2022-11-25T20:22:16.844Z,2.78
2022-11-25T20:27:18.299Z,2.83
2022-11-25T20:32:22.556Z,2.03
2022-11-25T20:37:24.990Z,2.22
2022-11-25T20:42:26.465Z,1.60
2022-11-25T20:47:28.247Z,2.13
2022-11-25T20:52:33.155Z,1.75
2022-11-25T20:57:36.398Z,1.90
2022-11-25T21:02:37.927Z,2.28
2022-11-25T21:07:39.599Z,2.38
2022-11-25T21:12:41.142Z,2.55
2022-11-25T21:17:42.615Z,1.70
2022-11-25T21:22:46.162Z,2.42
2022-11-25T21:27:47.617Z,2.47
2022-11-25T21:32:50.539Z,2.30
2022-11-25T21:37:51.994Z,2.78
2022-11-25T21:42:53.446Z,2.75
2022-11-25T21:47:54.921Z,2.28
2022-11-25T21:52:57.124Z,2.28
2022-11-25T21:57:58.583Z,2.35
2022-11-25T22:03:00.089Z,2.30
2022-11-25T22:08:01.695Z,2.47
2022-11-25T22:13:04.014Z,2.20
2022-11-25T22:18:05.484Z,3.00
2022-11-25T22:23:15.633Z,2.25
2022-11-25T22:28:21.569Z,2.05
2022-11-25T22:33:28.981Z,1.73
2022-11-25T22:38:30.593Z,2.83
2022-11-25T22:43:34.564Z,2.85
2022-11-25T22:48:36.648Z,2.20
2022-11-25T22:53:38.099Z,2.67
2022-11-25T22:58:39.742Z,2.03
2022-11-25T23:03:41.231Z,1.98
2022-11-25T23:08:42.693Z,1.65
2022-11-25T23:13:44.188Z,2.53
2022-11-25T23:18:46.018Z,2.55
2022-11-25T23:23:47.530Z,1.85
2022-11-25T23:28:49.128Z,2.50
2022-11-25T23:33:50.594Z,3.28
2022-11-25T23:38:56.401Z,2.22
2022-11-25T23:44:16.983Z,2.63
2022-11-25T23:49:23.968Z,2.70
2022-11-25T23:54:40.568Z,2.28
2022-11-25T23:59:42.518Z,2.45
